Ellsworth, Kansas
Current Conditions -  °F | °C
As of 2:53 PM on Tuesday 27 Jan 2015 (Local Time) from KSLN Reporting Station
Clear Clear  
Wind Chill: 74°   Ceiling: Unl
Heat Index: 74°   Visibility: 10mi
Dew Point: 36°   Wind: 12mph
Humidity: 25%   Direction: 180°S
Pressure: 29.98"   Gusts: NA
Location:  38.73°N, 98.23°W
Report Text: KSLN 272053Z 18010KT 10SM CLR 23/02 A2998 RMK AO2 SLP149 T02330022 56034
Loading
Personal Weather Stations






























Interactive Weather Map New forecast layout! Learn more

10-Day Weather Forecast

Advertisements
Track Severe Weather on mobile